Cleveland, Ohio
Traffic Map
Current Weather Conditions
Cleveland, Ohio
Broken Clouds
Broken Clouds
13°
Feels Like: 13°
Wind Chill: 13° Ceiling: 10000
Heat Index: 13° Visibility: 10mi
Dew Point: Wind: 13mph
Humidity: 74% Direction: 210° (SSW)
Pressure: 29.89in Gusts: 0mph
Raw Report DataKBKL 251153Z 21011KT 10SM BKN100 13/08 A2989 RMK AO2 SLP121 T01280083 10133 20117 57006
Traffic Incident Summary
Active as of:
Severity:
Category:
InformationThere was an issue retrieving the traffic information for this location. Please try a different location or try again shortly.
Advertisements
Track Severe Weather on mobile